createdAt,value
2018-08-31T00:00:48.026Z,14.70
2018-08-31T00:03:24.838Z,14.80
2018-08-31T00:06:04.453Z,14.80
2018-08-31T00:08:42.045Z,14.80
2018-08-31T00:11:23.326Z,14.80
2018-08-31T00:13:51.486Z,14.80
2018-08-31T00:16:19.634Z,14.80
2018-08-31T00:18:47.789Z,14.80
2018-08-31T00:21:15.980Z,14.80
2018-08-31T00:23:55.410Z,14.80
2018-08-31T00:26:34.926Z,14.80
2018-08-31T00:31:16.006Z,14.80
2018-08-31T00:33:55.537Z,14.70
2018-08-31T00:38:41.363Z,14.70
2018-08-31T00:41:19.661Z,14.70
2018-08-31T00:44:04.674Z,14.70
2018-08-31T00:46:32.832Z,14.70
2018-08-31T00:49:00.987Z,14.70
2018-08-31T00:51:29.139Z,14.60
2018-08-31T00:53:57.293Z,14.60
2018-08-31T00:56:25.446Z,14.60
2018-08-31T00:58:53.618Z,14.60
2018-08-31T01:01:21.767Z,14.60
2018-08-31T01:03:49.938Z,14.50
2018-08-31T01:06:18.091Z,14.50
2018-08-31T01:08:46.242Z,14.50
2018-08-31T01:11:14.393Z,14.50
2018-08-31T01:13:42.534Z,14.50
2018-08-31T01:16:10.734Z,14.50
2018-08-31T01:18:38.891Z,14.40
2018-08-31T01:21:07.043Z,14.40
2018-08-31T01:23:35.223Z,14.40
2018-08-31T01:26:03.366Z,14.40
2018-08-31T01:28:31.535Z,14.40
2018-08-31T01:30:59.744Z,14.40
2018-08-31T01:33:27.906Z,14.40
2018-08-31T01:35:56.050Z,14.40
2018-08-31T01:38:24.226Z,14.40
2018-08-31T01:40:52.386Z,14.30
2018-08-31T01:43:20.544Z,14.30
2018-08-31T01:45:48.687Z,14.30
2018-08-31T01:48:16.854Z,14.30
2018-08-31T01:50:50.474Z,14.30
2018-08-31T01:53:18.622Z,14.30
2018-08-31T01:55:46.831Z,14.30
2018-08-31T01:58:14.991Z,14.20
2018-08-31T02:00:43.151Z,14.20
2018-08-31T02:03:11.325Z,14.20
2018-08-31T02:05:39.469Z,14.20
2018-08-31T02:08:07.610Z,14.20
2018-08-31T02:10:35.802Z,14.10
2018-08-31T02:13:03.965Z,14.10
2018-08-31T02:15:32.110Z,14.10
2018-08-31T02:18:00.274Z,14.10
2018-08-31T02:20:28.430Z,14.00
2018-08-31T02:22:56.582Z,14.00
2018-08-31T02:25:24.728Z,14.00
2018-08-31T02:27:52.880Z,14.00
2018-08-31T02:30:27.562Z,13.90
2018-08-31T02:32:55.709Z,13.90
2018-08-31T02:35:23.879Z,13.90
2018-08-31T02:37:52.033Z,13.90
2018-08-31T02:40:20.238Z,13.90
2018-08-31T02:42:48.411Z,13.90
2018-08-31T02:45:16.564Z,13.80
2018-08-31T02:47:44.714Z,13.80
2018-08-31T02:50:12.890Z,13.80
2018-08-31T02:52:41.055Z,13.80
2018-08-31T02:55:09.227Z,13.80
2018-08-31T02:57:37.386Z,13.80
2018-08-31T03:00:05.549Z,13.80
2018-08-31T03:02:33.702Z,13.80
2018-08-31T03:05:01.868Z,13.80
2018-08-31T03:07:30.015Z,13.80
2018-08-31T03:09:58.482Z,13.80
2018-08-31T03:12:26.625Z,13.80
2018-08-31T03:14:54.784Z,13.80
2018-08-31T03:17:22.935Z,13.80
2018-08-31T03:19:51.115Z,13.80
2018-08-31T03:22:19.283Z,13.80
2018-08-31T03:24:47.443Z,13.80
2018-08-31T03:27:15.586Z,13.80
2018-08-31T03:29:43.742Z,13.80
2018-08-31T03:32:11.905Z,13.80
2018-08-31T03:34:40.063Z,13.80
2018-08-31T03:37:08.231Z,13.80
2018-08-31T03:39:36.408Z,13.80
2018-08-31T03:42:04.572Z,13.80
2018-08-31T03:44:32.726Z,13.70
2018-08-31T03:47:01.019Z,13.70
2018-08-31T03:49:29.503Z,13.70
2018-08-31T03:51:57.663Z,13.70
2018-08-31T03:54:25.834Z,13.70
2018-08-31T03:56:53.992Z,13.70
2018-08-31T03:59:22.140Z,13.70
2018-08-31T04:01:50.298Z,13.70
2018-08-31T04:04:18.446Z,13.70
2018-08-31T04:06:46.599Z,13.70
2018-08-31T04:09:14.764Z,13.70
2018-08-31T04:11:42.924Z,13.70
2018-08-31T04:14:11.088Z,13.70
2018-08-31T04:16:39.259Z,13.70
2018-08-31T04:19:11.446Z,13.70
2018-08-31T04:21:39.585Z,13.70
2018-08-31T04:24:07.739Z,13.60
2018-08-31T04:26:35.932Z,13.70
2018-08-31T04:29:04.103Z,13.70
2018-08-31T04:31:32.253Z,13.70
2018-08-31T04:34:00.426Z,13.70
2018-08-31T04:36:28.589Z,13.70
2018-08-31T04:38:56.724Z,13.70
2018-08-31T04:41:24.874Z,13.70
2018-08-31T04:43:53.030Z,13.60
2018-08-31T04:46:21.475Z,13.60
2018-08-31T04:48:49.638Z,13.60
2018-08-31T04:51:17.800Z,13.70
2018-08-31T04:53:45.971Z,13.60
2018-08-31T04:56:14.119Z,13.70
2018-08-31T04:58:42.277Z,13.60
2018-08-31T05:01:10.445Z,13.70
2018-08-31T05:03:38.587Z,13.70
2018-08-31T05:06:06.770Z,13.70
2018-08-31T05:08:34.931Z,13.70
2018-08-31T05:11:03.102Z,13.60
2018-08-31T05:13:31.262Z,13.60
2018-08-31T05:15:59.448Z,13.60
2018-08-31T05:18:34.190Z,13.70
2018-08-31T05:21:02.356Z,13.60
2018-08-31T05:23:31.160Z,13.70
2018-08-31T05:25:59.318Z,13.70
2018-08-31T05:28:27.757Z,13.80
2018-08-31T05:30:55.872Z,13.80
2018-08-31T05:33:24.079Z,13.90
2018-08-31T05:35:52.296Z,13.90
2018-08-31T05:38:20.506Z,14.00
2018-08-31T05:40:48.664Z,14.00
2018-08-31T05:43:16.852Z,14.00
2018-08-31T05:45:44.986Z,14.10
2018-08-31T05:48:13.146Z,14.10
2018-08-31T05:50:41.298Z,14.10
2018-08-31T05:53:09.472Z,14.10
2018-08-31T05:55:37.614Z,14.20
2018-08-31T05:58:05.790Z,14.20
2018-08-31T06:00:33.934Z,14.20
2018-08-31T06:03:02.140Z,14.20
2018-08-31T06:05:30.296Z,14.20
2018-08-31T06:07:58.439Z,14.20
2018-08-31T06:10:26.611Z,14.20
2018-08-31T06:12:54.766Z,14.20
2018-08-31T06:15:22.921Z,14.20
2018-08-31T06:17:51.082Z,14.20
2018-08-31T06:20:19.242Z,14.20
2018-08-31T06:22:47.399Z,14.20
2018-08-31T06:25:15.550Z,14.20
2018-08-31T06:27:43.706Z,14.20
2018-08-31T06:30:11.884Z,14.20
2018-08-31T06:32:40.096Z,14.20
2018-08-31T06:35:08.194Z,14.20
2018-08-31T06:37:36.346Z,14.20
2018-08-31T06:40:04.538Z,14.20
2018-08-31T06:42:32.673Z,14.20
2018-08-31T06:45:00.849Z,14.20
2018-08-31T06:47:29.014Z,14.20
2018-08-31T06:49:57.170Z,14.20
2018-08-31T06:52:25.304Z,14.20
2018-08-31T06:54:53.470Z,14.10
2018-08-31T06:57:21.626Z,14.10
2018-08-31T06:59:49.789Z,13.90
2018-08-31T07:02:17.934Z,13.70
2018-08-31T07:04:46.081Z,13.50
2018-08-31T07:07:14.246Z,13.20
2018-08-31T07:09:42.410Z,13.00
2018-08-31T07:12:10.568Z,12.70
2018-08-31T07:14:38.730Z,12.60
2018-08-31T07:17:06.890Z,12.50
2018-08-31T07:19:41.556Z,12.30
2018-08-31T07:22:09.674Z,12.20
2018-08-31T07:24:37.815Z,12.20
2018-08-31T07:27:05.962Z,12.10
2018-08-31T07:29:34.118Z,12.20
2018-08-31T07:32:02.499Z,12.10
2018-08-31T07:34:30.626Z,12.10
2018-08-31T07:36:58.770Z,12.10
2018-08-31T07:39:26.918Z,12.10
2018-08-31T07:41:55.071Z,12.10
2018-08-31T07:44:23.235Z,12.10
2018-08-31T07:46:51.405Z,12.00
2018-08-31T07:49:19.563Z,12.00
2018-08-31T07:51:47.711Z,12.00
2018-08-31T07:54:15.852Z,12.00
2018-08-31T07:56:43.999Z,12.00
2018-08-31T07:59:12.147Z,11.90
2018-08-31T08:01:40.301Z,11.90
2018-08-31T08:04:08.487Z,11.90
2018-08-31T08:06:36.639Z,12.00
2018-08-31T08:09:06.862Z,12.00
2018-08-31T08:11:35.022Z,12.00
2018-08-31T08:14:03.181Z,12.00
2018-08-31T08:16:31.474Z,12.10
2018-08-31T08:18:59.670Z,12.10
2018-08-31T08:21:27.938Z,12.10
2018-08-31T08:23:56.093Z,12.20
2018-08-31T08:26:24.243Z,12.20
2018-08-31T08:28:52.390Z,12.20
2018-08-31T08:31:20.539Z,12.20
2018-08-31T08:33:48.724Z,12.10
2018-08-31T08:36:16.875Z,12.20
2018-08-31T08:38:45.022Z,12.20
2018-08-31T08:41:13.169Z,12.20
2018-08-31T08:43:41.315Z,12.20
2018-08-31T08:46:09.460Z,12.20
2018-08-31T08:48:37.727Z,12.20
2018-08-31T08:51:05.755Z,12.20
2018-08-31T08:53:33.898Z,12.30
2018-08-31T08:56:02.056Z,12.30
2018-08-31T08:58:30.182Z,12.30
2018-08-31T09:00:58.340Z,12.30
2018-08-31T09:03:26.474Z,12.30
2018-08-31T09:05:54.624Z,12.40
2018-08-31T09:08:22.810Z,12.40
2018-08-31T09:10:50.938Z,12.60
2018-08-31T09:13:19.081Z,12.50
2018-08-31T09:15:47.323Z,12.50
2018-08-31T09:18:15.510Z,12.50
2018-08-31T09:20:43.626Z,12.60
2018-08-31T09:23:11.769Z,12.70
2018-08-31T09:25:39.918Z,12.60
2018-08-31T09:28:08.080Z,12.60
2018-08-31T09:30:45.622Z,12.50
2018-08-31T09:33:14.846Z,12.50
2018-08-31T09:35:42.979Z,12.50
2018-08-31T09:38:11.177Z,12.50
2018-08-31T09:40:39.258Z,12.50
2018-08-31T09:43:07.642Z,12.60
2018-08-31T09:45:35.779Z,12.60
2018-08-31T09:48:04.603Z,12.70
2018-08-31T09:50:32.741Z,12.70
2018-08-31T09:53:00.902Z,12.70
2018-08-31T09:55:29.050Z,12.70
2018-08-31T09:57:57.510Z,12.70
2018-08-31T10:00:31.253Z,12.70
2018-08-31T10:03:04.831Z,12.70
2018-08-31T10:05:32.982Z,12.80
2018-08-31T10:08:01.138Z,12.80
2018-08-31T10:10:29.305Z,12.70
2018-08-31T10:12:57.466Z,12.80
2018-08-31T10:15:25.618Z,12.80
2018-08-31T10:17:53.755Z,12.80
2018-08-31T10:20:21.890Z,12.80
2018-08-31T10:22:50.038Z,12.70
2018-08-31T10:25:18.205Z,12.70
2018-08-31T10:27:46.332Z,12.70
2018-08-31T10:30:14.544Z,12.70
2018-08-31T10:32:42.654Z,12.80
2018-08-31T10:35:10.806Z,12.80
2018-08-31T10:37:38.937Z,12.80
2018-08-31T10:40:07.094Z,12.80
2018-08-31T10:42:35.234Z,12.80
2018-08-31T10:45:03.381Z,12.80
2018-08-31T10:47:31.528Z,12.80
2018-08-31T10:49:59.683Z,12.90
2018-08-31T10:52:27.826Z,12.90
2018-08-31T10:54:55.967Z,13.00
2018-08-31T10:57:24.127Z,13.00
2018-08-31T10:59:52.269Z,13.00
2018-08-31T11:02:20.407Z,13.00
2018-08-31T11:04:48.555Z,13.00
2018-08-31T11:07:16.699Z,13.10
2018-08-31T11:09:44.874Z,13.10
2018-08-31T11:12:13.036Z,13.20
2018-08-31T11:14:41.184Z,13.20
2018-08-31T11:17:09.322Z,13.20
2018-08-31T11:19:37.637Z,13.20
2018-08-31T11:22:05.776Z,13.30
2018-08-31T11:24:34.148Z,13.30
2018-08-31T11:27:02.278Z,13.30
2018-08-31T11:29:30.434Z,13.30
2018-08-31T11:31:58.667Z,13.40
2018-08-31T11:34:26.834Z,13.40
2018-08-31T11:36:54.981Z,13.40
2018-08-31T11:39:23.128Z,13.40
2018-08-31T11:41:51.274Z,13.50
2018-08-31T11:44:19.412Z,13.40
2018-08-31T11:46:47.572Z,13.40
2018-08-31T11:49:15.702Z,13.40
2018-08-31T11:51:43.845Z,13.30
2018-08-31T11:54:11.985Z,13.40
2018-08-31T11:56:40.125Z,13.40
2018-08-31T11:59:08.291Z,13.40
2018-08-31T12:01:36.490Z,13.50
2018-08-31T12:04:04.636Z,13.50
2018-08-31T12:06:32.778Z,13.60
2018-08-31T12:09:00.934Z,13.60
2018-08-31T12:11:29.087Z,13.60
2018-08-31T12:13:57.226Z,13.50
2018-08-31T12:16:25.370Z,13.50
2018-08-31T12:18:53.506Z,13.40
2018-08-31T12:21:21.649Z,13.50
2018-08-31T12:23:49.801Z,13.50
2018-08-31T12:26:17.946Z,13.60
2018-08-31T12:28:46.082Z,13.60
2018-08-31T12:31:14.239Z,13.60
2018-08-31T12:33:42.408Z,13.60
2018-08-31T12:36:10.559Z,13.60
2018-08-31T12:38:38.722Z,13.60
2018-08-31T12:41:06.877Z,13.60
2018-08-31T12:43:35.051Z,13.50
2018-08-31T12:46:03.202Z,13.50
2018-08-31T12:48:31.346Z,13.60
2018-08-31T12:50:59.489Z,13.60
2018-08-31T12:53:27.643Z,13.60
2018-08-31T12:55:55.782Z,13.70
2018-08-31T12:58:23.937Z,13.70
2018-08-31T13:00:52.082Z,13.80
2018-08-31T13:03:20.234Z,13.80
2018-08-31T13:05:48.370Z,13.80
2018-08-31T13:08:16.520Z,13.80
2018-08-31T13:10:44.666Z,13.80
2018-08-31T13:13:12.815Z,13.80
2018-08-31T13:15:40.946Z,13.80
2018-08-31T13:18:09.085Z,13.80
2018-08-31T13:20:37.231Z,13.80
2018-08-31T13:23:05.419Z,13.70
2018-08-31T13:25:33.560Z,13.70
2018-08-31T13:28:01.706Z,13.70
2018-08-31T13:30:29.842Z,13.70
2018-08-31T13:32:58.018Z,13.70
2018-08-31T13:35:26.163Z,13.70
2018-08-31T13:37:54.353Z,13.60
2018-08-31T13:40:22.474Z,13.70
2018-08-31T13:42:50.626Z,13.60
2018-08-31T13:45:18.780Z,13.60
2018-08-31T13:47:46.934Z,13.60
2018-08-31T13:50:15.082Z,13.60
2018-08-31T13:52:43.306Z,13.60
2018-08-31T13:55:11.369Z,13.60
2018-08-31T13:57:39.513Z,13.70
2018-08-31T14:00:07.675Z,13.70
2018-08-31T14:02:35.807Z,13.70
2018-08-31T14:05:03.970Z,13.80
2018-08-31T14:07:32.143Z,13.70
2018-08-31T14:10:00.298Z,13.80
2018-08-31T14:12:28.450Z,13.80
2018-08-31T14:14:56.626Z,13.80
2018-08-31T14:17:24.789Z,13.70
2018-08-31T14:19:52.933Z,13.70
2018-08-31T14:22:21.081Z,13.60
2018-08-31T14:24:49.226Z,13.60
2018-08-31T14:27:17.362Z,13.60
2018-08-31T14:29:45.632Z,13.60
2018-08-31T14:32:13.654Z,13.60
2018-08-31T14:34:41.814Z,13.60
2018-08-31T14:37:09.958Z,13.60
2018-08-31T14:39:38.114Z,13.60
2018-08-31T14:42:06.277Z,13.60
2018-08-31T14:44:34.446Z,13.50
2018-08-31T14:47:02.586Z,13.50
2018-08-31T14:49:30.808Z,13.60
2018-08-31T14:51:58.886Z,13.50
2018-08-31T14:57:01.622Z,13.60
2018-08-31T14:59:29.790Z,13.60
2018-08-31T15:01:57.926Z,13.60
2018-08-31T15:04:26.065Z,13.60
2018-08-31T15:06:54.214Z,13.60
2018-08-31T15:09:22.358Z,13.60
2018-08-31T15:11:50.502Z,13.60
2018-08-31T15:14:18.656Z,13.70
2018-08-31T15:16:46.796Z,13.70
2018-08-31T15:19:14.954Z,13.70
2018-08-31T15:21:43.130Z,13.70
2018-08-31T15:24:11.290Z,13.70
2018-08-31T15:26:39.431Z,13.70
2018-08-31T15:29:07.558Z,13.80
2018-08-31T15:31:36.306Z,13.80
2018-08-31T15:34:04.346Z,13.80
2018-08-31T15:36:32.494Z,13.80
2018-08-31T15:39:00.646Z,13.80
2018-08-31T15:41:28.853Z,13.80
2018-08-31T15:43:56.989Z,13.80
2018-08-31T15:46:25.122Z,13.80
2018-08-31T15:48:53.278Z,13.80
2018-08-31T15:51:21.425Z,13.80
2018-08-31T15:53:49.577Z,13.80
2018-08-31T15:56:17.717Z,13.80
2018-08-31T15:58:45.877Z,13.80
2018-08-31T16:01:14.028Z,13.80
2018-08-31T16:03:42.164Z,13.80
2018-08-31T16:06:10.306Z,13.80
2018-08-31T16:08:38.444Z,13.70
2018-08-31T16:11:06.588Z,13.70
2018-08-31T16:13:34.733Z,13.70
2018-08-31T16:16:02.879Z,13.60
2018-08-31T16:18:31.202Z,13.60
2018-08-31T16:20:59.394Z,13.60
2018-08-31T16:23:27.517Z,13.60
2018-08-31T16:25:55.673Z,13.60
2018-08-31T16:28:24.166Z,13.60
2018-08-31T16:30:52.301Z,13.60
2018-08-31T16:33:20.449Z,13.60
2018-08-31T16:35:48.598Z,13.60
2018-08-31T16:38:16.823Z,13.60
2018-08-31T16:40:44.966Z,13.60
2018-08-31T16:43:13.111Z,13.60
2018-08-31T16:45:41.260Z,13.60
2018-08-31T16:48:09.402Z,13.50
2018-08-31T16:50:37.537Z,13.40
2018-08-31T16:53:05.733Z,13.40
2018-08-31T16:55:33.882Z,13.40
2018-08-31T16:58:02.031Z,13.30
2018-08-31T17:00:30.188Z,13.30
2018-08-31T17:02:58.394Z,13.30
2018-08-31T17:05:26.521Z,13.30
2018-08-31T17:07:54.833Z,13.20
2018-08-31T17:10:22.917Z,13.20
2018-08-31T17:12:51.056Z,13.20
2018-08-31T17:15:19.193Z,13.20
2018-08-31T17:17:47.339Z,13.20
2018-08-31T17:22:50.796Z,13.10
2018-08-31T17:25:18.937Z,13.10
2018-08-31T17:27:52.438Z,13.20
2018-08-31T17:30:20.601Z,13.20
2018-08-31T17:32:54.343Z,13.20
2018-08-31T17:35:28.036Z,13.20
2018-08-31T17:37:57.721Z,13.20
2018-08-31T17:40:25.930Z,13.20
2018-08-31T17:42:54.110Z,13.20
2018-08-31T17:45:22.257Z,13.20
2018-08-31T17:47:50.939Z,13.20
2018-08-31T17:50:19.083Z,13.20
2018-08-31T17:52:47.239Z,13.20
2018-08-31T17:55:15.427Z,13.20
2018-08-31T17:57:43.829Z,13.20
2018-08-31T18:00:12.403Z,13.20
2018-08-31T18:02:40.800Z,13.30
2018-08-31T18:05:08.935Z,13.30
2018-08-31T18:07:37.090Z,13.30
2018-08-31T18:10:05.678Z,13.40
2018-08-31T18:12:33.851Z,13.40
2018-08-31T18:15:01.978Z,13.50
2018-08-31T18:17:30.131Z,13.40
2018-08-31T18:19:58.278Z,13.40
2018-08-31T18:22:26.419Z,13.50
2018-08-31T18:24:54.565Z,13.50
2018-08-31T18:27:22.842Z,13.50
2018-08-31T18:29:51.007Z,13.50
2018-08-31T18:32:19.217Z,13.50
2018-08-31T18:34:47.362Z,13.50
2018-08-31T18:37:15.499Z,13.50
2018-08-31T18:39:43.710Z,13.50
2018-08-31T18:42:11.890Z,13.50
2018-08-31T18:44:40.046Z,13.40
2018-08-31T18:47:08.211Z,13.40
2018-08-31T18:49:37.438Z,13.30
2018-08-31T18:52:05.591Z,13.30
2018-08-31T18:54:33.822Z,13.30
2018-08-31T18:57:01.950Z,13.30
2018-08-31T18:59:30.090Z,13.30
2018-08-31T19:01:58.235Z,13.20
2018-08-31T19:04:26.466Z,13.20
2018-08-31T19:06:54.757Z,13.20
2018-08-31T19:09:22.931Z,13.20
2018-08-31T19:11:51.082Z,13.20
2018-08-31T19:14:19.225Z,13.10
2018-08-31T19:16:47.366Z,13.10
2018-08-31T19:19:15.618Z,13.10
2018-08-31T19:21:43.778Z,13.10
2018-08-31T19:24:11.961Z,13.10
2018-08-31T19:26:40.067Z,13.10
2018-08-31T19:29:08.226Z,13.10
2018-08-31T19:31:36.378Z,13.10
2018-08-31T19:34:04.651Z,13.10
2018-08-31T19:36:32.838Z,13.10
2018-08-31T19:39:00.991Z,13.10
2018-08-31T19:41:29.187Z,13.10
2018-08-31T19:43:57.362Z,13.10
2018-08-31T19:46:25.486Z,13.10
2018-08-31T19:48:53.652Z,13.20
2018-08-31T19:51:21.786Z,13.20
2018-08-31T19:53:49.978Z,13.20
2018-08-31T19:56:18.078Z,13.30
2018-08-31T19:58:46.226Z,13.30
2018-08-31T20:01:14.411Z,13.30
2018-08-31T20:03:42.541Z,13.30
2018-08-31T20:06:10.698Z,13.30
2018-08-31T20:08:38.833Z,13.20
2018-08-31T20:11:06.974Z,13.20
2018-08-31T20:13:35.186Z,13.20
2018-08-31T20:16:03.328Z,13.20
2018-08-31T20:18:31.427Z,13.20
2018-08-31T20:20:59.570Z,13.20
2018-08-31T20:23:27.717Z,13.20
2018-08-31T20:25:55.874Z,13.20
2018-08-31T20:28:24.018Z,13.20
2018-08-31T20:30:52.234Z,13.20
2018-08-31T20:33:20.339Z,13.10
2018-08-31T20:35:48.491Z,13.10
2018-08-31T20:38:16.669Z,13.10
2018-08-31T20:40:44.822Z,13.00
2018-08-31T20:43:13.008Z,13.00
2018-08-31T20:45:41.190Z,13.00
2018-08-31T20:48:09.426Z,13.00
2018-08-31T20:50:37.755Z,13.00
2018-08-31T20:53:06.030Z,13.00
2018-08-31T20:55:34.198Z,13.00
2018-08-31T20:58:02.582Z,12.90
2018-08-31T21:00:30.714Z,12.90
2018-08-31T21:02:58.874Z,13.00
2018-08-31T21:05:26.998Z,13.00
2018-08-31T21:07:55.149Z,12.90
2018-08-31T21:10:23.291Z,13.00
2018-08-31T21:12:51.466Z,12.90
2018-08-31T21:15:19.610Z,13.00
2018-08-31T21:17:47.750Z,13.00
2018-08-31T21:20:15.893Z,12.90
2018-08-31T21:22:44.033Z,12.90
2018-08-31T21:25:12.196Z,12.90
2018-08-31T21:27:40.354Z,13.00
2018-08-31T21:30:08.498Z,13.00
2018-08-31T21:32:36.650Z,12.90
2018-08-31T21:35:04.906Z,13.00
2018-08-31T21:37:33.110Z,12.90
2018-08-31T21:40:01.247Z,12.90
2018-08-31T21:42:29.454Z,13.00
2018-08-31T21:44:57.581Z,12.90
2018-08-31T21:47:25.733Z,12.90
2018-08-31T21:49:53.881Z,12.90
2018-08-31T21:52:22.022Z,12.90
2018-08-31T21:54:50.167Z,12.90
2018-08-31T21:57:18.351Z,12.90
2018-08-31T21:59:46.498Z,12.90
2018-08-31T22:02:14.662Z,12.90
2018-08-31T22:04:42.813Z,13.00
2018-08-31T22:10:42.441Z,12.90
2018-08-31T22:13:10.619Z,12.90
2018-08-31T22:15:38.774Z,12.90
2018-08-31T22:18:06.702Z,12.80
2018-08-31T22:20:34.835Z,12.80
2018-08-31T22:23:02.969Z,12.90
2018-08-31T22:25:31.114Z,12.80
2018-08-31T22:27:59.253Z,12.80
2018-08-31T22:30:27.394Z,12.80
2018-08-31T22:32:55.546Z,12.80
2018-08-31T22:35:23.673Z,12.80
2018-08-31T22:37:51.886Z,12.80
2018-08-31T22:40:20.036Z,12.90
2018-08-31T22:42:48.191Z,12.90
2018-08-31T22:45:16.338Z,12.90
2018-08-31T22:47:45.118Z,12.90
2018-08-31T22:50:14.118Z,12.90
2018-08-31T22:52:42.361Z,12.90
2018-08-31T22:55:10.530Z,12.90
2018-08-31T22:57:38.682Z,12.90
2018-08-31T23:00:06.950Z,12.80
2018-08-31T23:02:35.087Z,12.80
2018-08-31T23:05:03.456Z,12.90
2018-08-31T23:07:36.988Z,12.80
2018-08-31T23:10:05.321Z,12.80
2018-08-31T23:12:33.458Z,12.80
2018-08-31T23:15:01.615Z,12.80
2018-08-31T23:17:30.265Z,12.70
2018-08-31T23:19:59.268Z,12.80
2018-08-31T23:22:28.557Z,12.70
2018-08-31T23:24:58.079Z,12.70
2018-08-31T23:27:26.742Z,12.70
2018-08-31T23:29:55.135Z,12.70
2018-08-31T23:32:23.610Z,12.80
2018-08-31T23:34:51.996Z,12.80
2018-08-31T23:37:20.142Z,12.80
2018-08-31T23:39:48.346Z,12.80
2018-08-31T23:42:16.491Z,12.80
2018-08-31T23:44:44.674Z,12.80
2018-08-31T23:49:47.469Z,12.80
2018-08-31T23:52:15.618Z,12.80
2018-08-31T23:54:43.774Z,12.90
2018-08-31T23:57:11.910Z,12.80
2018-08-31T23:59:40.066Z,12.80
